createdAt,value
2022-11-12T00:00:09.695Z,102.03
2022-11-12T00:03:30.044Z,100.65
2022-11-12T00:06:50.543Z,99.80
2022-11-12T00:10:10.904Z,92.28
2022-11-12T00:13:31.815Z,92.03
2022-11-12T00:16:52.673Z,87.50
2022-11-12T00:20:13.713Z,90.25
2022-11-12T00:23:34.415Z,98.03
2022-11-12T00:26:55.703Z,96.47
2022-11-12T00:30:16.343Z,93.47
2022-11-12T00:33:39.680Z,96.78
2022-11-12T00:37:01.336Z,90.88
2022-11-12T00:40:21.939Z,96.85
2022-11-12T00:43:42.787Z,96.25
2022-11-12T00:47:03.670Z,95.00
2022-11-12T00:50:24.604Z,100.15
2022-11-12T00:53:47.899Z,98.43
2022-11-12T00:57:08.631Z,91.05
2022-11-12T01:00:29.308Z,91.57
2022-11-12T01:03:49.947Z,90.83
2022-11-12T01:07:10.542Z,91.10
2022-11-12T01:10:31.515Z,93.78
2022-11-12T01:13:56.491Z,80.43
2022-11-12T01:17:17.014Z,86.22
2022-11-12T01:20:38.459Z,77.73
2022-11-12T01:23:59.960Z,85.00
2022-11-12T01:27:20.656Z,83.97
2022-11-12T01:30:41.311Z,89.60
2022-11-12T01:34:03.570Z,93.35
2022-11-12T01:37:24.330Z,84.77
2022-11-12T01:40:44.883Z,85.75
2022-11-12T01:44:27.033Z,73.68
2022-11-12T01:47:49.938Z,75.10
2022-11-12T01:51:11.648Z,73.22
2022-11-12T01:54:32.251Z,73.97
2022-11-12T01:57:55.946Z,73.70
2022-11-12T02:01:17.155Z,65.82
2022-11-12T02:04:39.911Z,62.33
2022-11-12T02:08:00.822Z,59.92
2022-11-12T02:11:21.729Z,70.43
2022-11-12T02:14:42.474Z,74.88
2022-11-12T02:18:03.716Z,78.53
2022-11-12T02:21:24.992Z,72.00
2022-11-12T02:24:45.570Z,61.05
2022-11-12T02:28:07.337Z,58.30
2022-11-12T02:31:28.114Z,62.10
2022-11-12T02:34:48.817Z,59.58
2022-11-12T02:38:09.820Z,63.38
2022-11-12T02:41:30.407Z,73.68
2022-11-12T02:44:51.214Z,77.87
2022-11-12T02:48:16.454Z,79.47
2022-11-12T02:51:39.665Z,73.85
2022-11-12T02:55:00.110Z,75.22
2022-11-12T02:58:22.699Z,79.65
2022-11-12T03:01:43.734Z,69.43
2022-11-12T03:05:04.436Z,66.43
2022-11-12T03:08:25.754Z,73.07
2022-11-12T03:11:46.712Z,67.07
2022-11-12T03:15:07.624Z,87.18
2022-11-12T03:18:28.596Z,76.93
2022-11-12T03:21:49.638Z,82.60
2022-11-12T03:25:10.371Z,95.97
2022-11-12T03:28:31.534Z,80.30
2022-11-12T03:31:52.128Z,80.63
2022-11-12T03:35:13.085Z,86.73
2022-11-12T03:38:33.775Z,77.72
2022-11-12T03:41:54.912Z,94.45
2022-11-12T03:45:16.469Z,94.63
2022-11-12T03:48:37.143Z,93.18
2022-11-12T03:51:57.535Z,76.73
2022-11-12T03:55:19.066Z,86.82
2022-11-12T03:58:39.646Z,84.95
2022-11-12T04:02:00.395Z,70.57
2022-11-12T04:05:40.090Z,66.30
2022-11-12T04:09:00.480Z,57.93
2022-11-12T04:12:39.764Z,64.47
2022-11-12T04:16:28.977Z,55.60
2022-11-12T04:20:08.079Z,57.25
2022-11-12T04:23:28.873Z,53.38
2022-11-12T04:26:49.471Z,46.07
2022-11-12T04:30:16.413Z,42.45
2022-11-12T04:33:36.903Z,48.00
2022-11-12T04:36:57.407Z,54.47
2022-11-12T04:40:38.058Z,49.72
2022-11-12T04:44:17.444Z,46.90
2022-11-12T04:47:39.530Z,48.97
2022-11-12T04:51:01.818Z,48.90
2022-11-12T04:54:22.670Z,51.40
2022-11-12T04:57:43.252Z,49.55
2022-11-12T05:01:03.884Z,50.57
2022-11-12T05:04:27.709Z,47.38
2022-11-12T05:07:48.539Z,70.95
2022-11-12T05:11:12.791Z,60.58
2022-11-12T05:14:33.910Z,56.92
2022-11-12T05:17:54.553Z,55.43
2022-11-12T05:21:33.646Z,55.15
2022-11-12T05:24:54.564Z,50.45
2022-11-12T05:28:15.152Z,58.92
2022-11-12T05:31:35.840Z,70.60
2022-11-12T05:34:56.523Z,71.20
2022-11-12T05:38:17.023Z,74.07
2022-11-12T05:41:58.312Z,99.68
2022-11-12T05:45:18.445Z,121.05
2022-11-12T05:48:39.119Z,122.03
2022-11-12T05:51:59.647Z,120.97
2022-11-12T05:55:20.736Z,127.40
2022-11-12T05:58:41.218Z,129.18
2022-11-12T06:02:01.996Z,124.50
2022-11-12T06:05:23.097Z,119.88
2022-11-12T06:08:43.917Z,107.37
2022-11-12T06:12:06.811Z,102.70
2022-11-12T06:15:27.996Z,104.15
2022-11-12T06:18:48.634Z,106.50
2022-11-12T06:22:09.488Z,90.63
2022-11-12T06:25:29.947Z,89.53
2022-11-12T06:28:50.539Z,69.95
2022-11-12T06:32:11.344Z,78.97
2022-11-12T06:35:31.861Z,86.25
2022-11-12T06:38:52.421Z,90.18
2022-11-12T06:42:13.061Z,81.37
2022-11-12T06:45:33.850Z,82.93
2022-11-12T06:48:54.569Z,98.57
2022-11-12T06:52:16.675Z,104.35
2022-11-12T06:55:37.423Z,93.82
2022-11-12T06:58:57.994Z,98.80
2022-11-12T07:02:18.646Z,83.85
2022-11-12T07:05:39.681Z,93.03
2022-11-12T07:09:00.342Z,101.60
2022-11-12T07:12:20.841Z,108.63
2022-11-12T07:15:41.657Z,91.33
2022-11-12T07:19:02.726Z,88.75
2022-11-12T07:22:23.577Z,86.65
2022-11-12T07:25:44.322Z,83.53
2022-11-12T07:29:07.454Z,91.50
2022-11-12T07:32:27.967Z,97.60
2022-11-12T07:35:48.606Z,106.10
2022-11-12T07:39:09.289Z,96.72
2022-11-12T07:42:32.394Z,97.68
2022-11-12T07:45:53.104Z,86.20
2022-11-12T07:49:13.984Z,84.17
2022-11-12T07:52:34.806Z,89.75
2022-11-12T07:55:57.002Z,91.30
2022-11-12T07:59:17.529Z,80.07
2022-11-12T08:02:38.511Z,76.15
2022-11-12T08:06:00.031Z,83.20
2022-11-12T08:09:20.731Z,91.25
2022-11-12T08:12:41.572Z,93.07
2022-11-12T08:16:02.262Z,101.25
2022-11-12T08:19:23.138Z,96.85
2022-11-12T08:22:49.058Z,89.87
2022-11-12T08:26:14.840Z,85.40
2022-11-12T08:29:35.874Z,81.75
2022-11-12T08:33:00.502Z,81.53
2022-11-12T08:36:21.398Z,74.90
2022-11-12T08:39:42.257Z,83.47
2022-11-12T08:43:05.051Z,77.50
2022-11-12T08:46:26.323Z,73.18
2022-11-12T08:49:48.292Z,73.53
2022-11-12T08:53:10.457Z,74.50
2022-11-12T08:56:33.938Z,68.20
2022-11-12T08:59:54.876Z,77.13
2022-11-12T09:03:16.993Z,69.90
2022-11-12T09:06:38.342Z,73.53
2022-11-12T09:09:59.269Z,71.45
2022-11-12T09:13:21.102Z,69.23
2022-11-12T09:16:42.252Z,67.03
2022-11-12T09:20:02.777Z,64.85
2022-11-12T09:23:23.360Z,65.05
2022-11-12T09:26:43.977Z,61.22
2022-11-12T09:30:05.060Z,59.63
2022-11-12T09:33:27.898Z,58.92
2022-11-12T09:36:48.623Z,60.50
2022-11-12T09:40:11.335Z,59.65
2022-11-12T09:43:31.665Z,57.65
2022-11-12T09:47:21.624Z,55.00
2022-11-12T09:51:02.904Z,54.22
2022-11-12T09:54:42.524Z,50.28
2022-11-12T09:58:09.355Z,53.80
2022-11-12T10:01:36.680Z,52.40
2022-11-12T10:05:12.245Z,46.57
2022-11-12T10:08:37.973Z,45.90
2022-11-12T10:12:17.572Z,41.20
2022-11-12T10:16:20.213Z,40.00
2022-11-12T10:19:57.357Z,36.85
2022-11-12T10:23:24.987Z,30.17
2022-11-12T10:26:45.904Z,30.02
2022-11-12T10:30:08.070Z,34.30
2022-11-12T10:33:30.476Z,38.92
2022-11-12T10:36:56.616Z,34.97
2022-11-12T10:40:20.767Z,37.67
2022-11-12T10:43:53.294Z,38.00
2022-11-12T10:47:32.441Z,42.25
2022-11-12T10:50:54.435Z,38.88
2022-11-12T10:54:27.238Z,40.00
2022-11-12T10:58:00.237Z,40.03
2022-11-12T11:01:21.155Z,38.03
2022-11-12T11:04:42.897Z,35.88
2022-11-12T11:08:05.111Z,35.22
2022-11-12T11:11:27.749Z,37.78
2022-11-12T11:15:05.053Z,33.47
2022-11-12T11:18:26.012Z,32.97
2022-11-12T11:21:50.508Z,38.88
2022-11-12T11:25:19.486Z,39.08
2022-11-12T11:29:09.832Z,25.10
2022-11-12T11:32:49.204Z,25.60
2022-11-12T11:36:12.873Z,25.42
2022-11-12T11:39:33.722Z,25.48
2022-11-12T11:43:00.738Z,28.50
2022-11-12T11:46:27.732Z,24.65
2022-11-12T11:49:48.390Z,26.17
2022-11-12T11:53:18.331Z,22.75
2022-11-12T11:56:44.910Z,24.45
2022-11-12T12:00:20.661Z,19.15
2022-11-12T12:03:56.667Z,21.67
2022-11-12T12:07:20.620Z,20.30
2022-11-12T12:11:07.452Z,22.52
2022-11-12T12:14:33.365Z,20.25
2022-11-12T12:18:08.867Z,16.08
2022-11-12T12:21:32.244Z,12.75
2022-11-12T12:25:13.282Z,15.03
2022-11-12T12:28:43.594Z,14.93
2022-11-12T12:32:33.807Z,15.35
2022-11-12T12:35:58.108Z,14.70
2022-11-12T12:39:19.910Z,15.23
2022-11-12T12:42:47.484Z,19.37
2022-11-12T12:46:11.246Z,16.25
2022-11-12T12:49:34.533Z,17.55
2022-11-12T12:53:02.269Z,16.00
2022-11-12T12:56:23.018Z,20.17
2022-11-12T12:59:43.882Z,21.10
2022-11-12T13:03:04.662Z,23.38
2022-11-12T13:06:48.703Z,23.75
2022-11-12T13:10:27.922Z,21.60
2022-11-12T13:13:48.441Z,20.92
2022-11-12T13:17:09.325Z,18.57
2022-11-12T13:20:33.945Z,16.92
2022-11-12T13:24:07.809Z,18.63
2022-11-12T13:27:44.240Z,19.98
2022-11-12T13:31:23.682Z,21.77
2022-11-12T13:34:44.409Z,18.37
2022-11-12T13:38:07.998Z,17.80
2022-11-12T13:41:47.170Z,21.17
2022-11-12T13:45:10.738Z,20.08
2022-11-12T13:48:38.862Z,22.88
2022-11-12T13:52:00.786Z,23.73
2022-11-12T13:55:22.119Z,20.63
2022-11-12T13:58:44.161Z,24.35
2022-11-12T14:02:15.547Z,25.27
2022-11-12T14:05:37.120Z,28.25
2022-11-12T14:09:03.517Z,26.07
2022-11-12T14:12:30.057Z,30.10
2022-11-12T14:15:57.499Z,26.80
2022-11-12T14:19:21.514Z,25.67
2022-11-12T14:22:43.214Z,28.20
2022-11-12T14:26:04.098Z,28.67
2022-11-12T14:29:26.757Z,27.88
2022-11-12T14:32:57.952Z,30.52
2022-11-12T14:36:19.639Z,31.98
2022-11-12T14:39:41.390Z,32.40
2022-11-12T14:43:02.215Z,35.60
2022-11-12T14:46:30.332Z,36.03
2022-11-12T14:49:51.146Z,36.65
2022-11-12T14:53:14.822Z,33.78
2022-11-12T14:56:38.640Z,34.03
2022-11-12T14:59:59.221Z,40.23
2022-11-12T15:03:22.044Z,37.80
2022-11-12T15:06:42.841Z,38.22
2022-11-12T15:10:23.567Z,38.38
2022-11-12T15:13:45.190Z,39.35
2022-11-12T15:17:06.108Z,40.37
2022-11-12T15:20:27.074Z,41.40
2022-11-12T15:23:52.214Z,42.65
2022-11-12T15:27:31.808Z,38.92
2022-11-12T15:31:05.811Z,40.03
2022-11-12T15:34:45.792Z,43.83
2022-11-12T15:38:11.056Z,42.55
2022-11-12T15:41:34.027Z,40.20
2022-11-12T15:44:57.636Z,42.53
2022-11-12T15:48:19.008Z,39.53
2022-11-12T15:51:39.775Z,43.20
2022-11-12T15:55:00.449Z,48.50
2022-11-12T15:58:27.432Z,50.70
2022-11-12T16:01:48.277Z,45.60
2022-11-12T16:05:15.664Z,48.83
2022-11-12T16:08:36.434Z,49.60
2022-11-12T16:11:58.934Z,47.25
2022-11-12T16:15:20.946Z,46.83
2022-11-12T16:18:41.656Z,49.72
2022-11-12T16:22:02.241Z,52.17
2022-11-12T16:25:23.693Z,52.23
2022-11-12T16:28:44.652Z,51.90
2022-11-12T16:32:05.376Z,50.92
2022-11-12T16:35:26.555Z,52.88
2022-11-12T16:38:47.688Z,53.40
2022-11-12T16:42:10.513Z,56.00
2022-11-12T16:45:35.567Z,57.28
2022-11-12T16:48:56.536Z,62.60
2022-11-12T16:52:17.244Z,65.68
2022-11-12T16:55:37.704Z,65.75
2022-11-12T16:58:58.211Z,62.83
2022-11-12T17:02:18.843Z,61.42
2022-11-12T17:05:39.428Z,64.38
2022-11-12T17:09:00.353Z,64.28
2022-11-12T17:12:21.065Z,69.95
2022-11-12T17:15:41.793Z,64.10
2022-11-12T17:19:02.919Z,66.95
2022-11-12T17:22:23.579Z,65.20
2022-11-12T17:25:44.282Z,60.13
2022-11-12T17:29:08.268Z,73.57
2022-11-12T17:32:29.596Z,74.93
2022-11-12T17:35:50.488Z,83.20
2022-11-12T17:39:11.972Z,78.43
2022-11-12T17:42:33.033Z,81.47
2022-11-12T17:45:54.152Z,86.03
2022-11-12T17:49:15.412Z,90.67
2022-11-12T17:52:36.108Z,84.88
2022-11-12T17:55:57.393Z,84.78
2022-11-12T17:59:18.079Z,84.75
2022-11-12T18:02:39.238Z,85.00
2022-11-12T18:06:00.445Z,75.90
2022-11-12T18:09:21.568Z,73.10
2022-11-12T18:12:42.820Z,68.85
2022-11-12T18:16:14.828Z,68.85
2022-11-12T18:19:35.589Z,62.20
2022-11-12T18:22:56.328Z,65.57
2022-11-12T18:26:21.161Z,69.55
2022-11-12T18:29:41.981Z,71.93
2022-11-12T18:33:02.793Z,71.95
2022-11-12T18:36:25.036Z,70.57
2022-11-12T18:39:45.898Z,76.30
2022-11-12T18:43:07.083Z,74.60
2022-11-12T18:46:27.993Z,73.97
2022-11-12T18:49:48.803Z,74.93
2022-11-12T18:53:09.607Z,74.75
2022-11-12T18:56:30.211Z,71.07
2022-11-12T18:59:54.930Z,75.50
2022-11-12T19:03:15.719Z,81.47
2022-11-12T19:06:36.553Z,74.32
2022-11-12T19:09:57.351Z,72.30
2022-11-12T19:13:17.990Z,75.43
2022-11-12T19:16:40.434Z,76.47
2022-11-12T19:20:01.250Z,77.13
2022-11-12T19:23:22.086Z,80.07
2022-11-12T19:26:43.082Z,76.13
2022-11-12T19:30:05.797Z,82.70
2022-11-12T19:33:26.927Z,78.20
2022-11-12T19:36:48.515Z,87.07
2022-11-12T19:40:14.197Z,76.00
2022-11-12T19:43:34.723Z,79.45
2022-11-12T19:46:55.628Z,74.07
2022-11-12T19:50:20.874Z,81.97
2022-11-12T19:53:44.914Z,81.20
2022-11-12T19:57:06.034Z,77.22
2022-11-12T20:00:27.219Z,74.22
2022-11-12T20:03:48.602Z,77.47
2022-11-12T20:07:09.273Z,78.97
2022-11-12T20:10:30.036Z,73.00
2022-11-12T20:13:52.540Z,76.30
2022-11-12T20:17:13.120Z,74.22
2022-11-12T20:20:33.732Z,75.23
2022-11-12T20:23:54.443Z,72.55
2022-11-12T20:27:15.881Z,79.45
2022-11-12T20:30:36.430Z,76.50
2022-11-12T20:33:57.369Z,77.65
2022-11-12T20:37:18.613Z,76.50
2022-11-12T20:40:39.205Z,86.80
2022-11-12T20:44:00.541Z,78.97
2022-11-12T20:47:22.322Z,81.38
2022-11-12T20:51:02.427Z,82.90
2022-11-12T20:54:23.703Z,78.83
2022-11-12T20:57:44.600Z,79.90
2022-11-12T21:01:06.208Z,75.65
2022-11-12T21:04:27.080Z,78.45
2022-11-12T21:07:47.669Z,77.22
2022-11-12T21:11:09.267Z,72.73
2022-11-12T21:14:30.832Z,76.85
2022-11-12T21:17:52.508Z,67.78
2022-11-12T21:21:14.303Z,61.60
2022-11-12T21:24:35.051Z,69.75
2022-11-12T21:27:57.678Z,68.07
2022-11-12T21:31:19.696Z,77.68
2022-11-12T21:34:40.532Z,72.00
2022-11-12T21:38:01.143Z,80.13
2022-11-12T21:41:22.789Z,69.50
2022-11-12T21:44:43.456Z,80.63
2022-11-12T21:48:04.262Z,225.63
2022-11-12T21:51:29.526Z,79.90
2022-11-12T21:54:49.955Z,74.95
2022-11-12T21:58:10.514Z,63.00
2022-11-12T22:01:32.629Z,60.47
2022-11-12T22:04:53.132Z,65.68
2022-11-12T22:08:13.980Z,67.25
2022-11-12T22:11:35.094Z,56.10
2022-11-12T22:14:55.976Z,72.93
2022-11-12T22:18:16.691Z,50.50
2022-11-12T22:21:40.044Z,54.90
2022-11-12T22:25:01.240Z,55.60
2022-11-12T22:28:22.198Z,66.35
2022-11-12T22:31:42.926Z,65.78
2022-11-12T22:35:03.947Z,71.73
2022-11-12T22:38:24.903Z,99.47
2022-11-12T22:41:46.952Z,58.20
2022-11-12T22:45:08.200Z,135.95
2022-11-12T22:48:29.173Z,63.97
2022-11-12T22:51:49.979Z,64.03
2022-11-12T22:55:11.302Z,52.35
2022-11-12T22:58:39.037Z,101.50
2022-11-12T23:01:59.624Z,52.83
2022-11-12T23:05:20.620Z,127.72
2022-11-12T23:08:41.980Z,202.53
2022-11-12T23:12:02.653Z,102.30
2022-11-12T23:15:23.535Z,72.25
2022-11-12T23:18:44.365Z,124.35
2022-11-12T23:22:07.867Z,123.50
2022-11-12T23:25:29.429Z,59.40
2022-11-12T23:28:50.606Z,68.70
2022-11-12T23:32:11.043Z,77.32
2022-11-12T23:35:31.742Z,71.18
2022-11-12T23:38:53.495Z,72.57
2022-11-12T23:42:14.155Z,70.27
2022-11-12T23:45:40.627Z,72.78
2022-11-12T23:49:01.130Z,74.20
2022-11-12T23:52:21.707Z,69.45
2022-11-12T23:55:42.523Z,72.93
2022-11-12T23:59:03.066Z,81.13
